Terminal Aerodrome Forecast
Issued by NWS Mobile, AL

Home | Current Version | Previous Version | Text Only | Print | Product List | Glossary On
Versions: 1 2 3 4 5 6 7 8 9 10 11 12
000
FTUS44 KMOB 242321
TAFMOB
TAF
KMOB 242321Z 2500/2524 17007KT P6SM FEW250
     FM250200 18003KT P6SM FEW250
     FM251000 00000KT 5SM BR FEW200
     FM251300 14008KT P6SM SCT250=

USA.gov is the U.S. government's official web portal to all federal, state and local government web resources and services.